createdAt,value
2022-08-04T00:00:00.748Z,1.30
2022-08-04T00:00:31.735Z,1.50
2022-08-04T00:01:02.788Z,1.30
2022-08-04T00:01:33.437Z,1.40
2022-08-04T00:02:04.330Z,1.30
2022-08-04T00:02:34.744Z,1.40
2022-08-04T00:03:05.653Z,1.40
2022-08-04T00:03:36.556Z,1.40
2022-08-04T00:04:07.496Z,1.30
2022-08-04T00:04:38.464Z,1.20
2022-08-04T00:05:09.623Z,1.30
2022-08-04T00:05:40.113Z,1.30
2022-08-04T00:06:11.014Z,1.40
2022-08-04T00:06:41.851Z,1.30
2022-08-04T00:07:12.823Z,1.30
2022-08-04T00:07:45.155Z,1.30
2022-08-04T00:08:14.630Z,1.30
2022-08-04T00:08:45.102Z,1.20
2022-08-04T00:09:16.013Z,1.20
2022-08-04T00:09:46.998Z,1.30
2022-08-04T00:10:17.911Z,1.30
2022-08-04T00:10:48.886Z,1.20
2022-08-04T00:11:19.968Z,1.20
2022-08-04T00:11:50.437Z,1.30
2022-08-04T00:12:21.418Z,1.30
2022-08-04T00:12:53.386Z,1.20
2022-08-04T00:13:22.871Z,1.20
2022-08-04T00:14:03.224Z,1.30
2022-08-04T00:14:25.484Z,1.30
2022-08-04T00:14:55.397Z,1.30
2022-08-04T00:15:26.314Z,1.20
2022-08-04T00:15:57.196Z,1.30
2022-08-04T00:16:32.729Z,1.20
2022-08-04T00:16:59.798Z,1.30
2022-08-04T00:17:29.753Z,1.30
2022-08-04T00:18:00.668Z,1.40
2022-08-04T00:18:31.580Z,1.30
2022-08-04T00:19:02.642Z,1.40
2022-08-04T00:19:33.116Z,1.30
2022-08-04T00:20:04.087Z,1.40
2022-08-04T00:20:35.073Z,1.20
2022-08-04T00:21:06.050Z,1.30
2022-08-04T00:21:37.006Z,1.30
2022-08-04T00:22:08.147Z,1.40
2022-08-04T00:22:38.623Z,1.30
2022-08-04T00:23:09.504Z,1.30
2022-08-04T00:24:10.850Z,1.30
2022-08-04T00:24:13.069Z,1.30
2022-08-04T00:24:41.781Z,1.20
2022-08-04T00:25:12.846Z,1.20
2022-08-04T00:25:43.319Z,1.30
2022-08-04T00:26:14.235Z,1.30
2022-08-04T00:26:45.208Z,1.30
2022-08-04T00:27:16.187Z,1.40
2022-08-04T00:27:47.169Z,1.30
2022-08-04T00:28:17.836Z,1.30
2022-08-04T00:28:48.314Z,1.20
2022-08-04T00:29:19.263Z,1.30
2022-08-04T00:29:52.975Z,1.40
2022-08-04T00:30:20.908Z,1.30
2022-08-04T00:30:51.899Z,1.40
2022-08-04T00:31:33.375Z,1.30
2022-08-04T00:31:57.378Z,1.30
2022-08-04T00:32:34.125Z,1.40
2022-08-04T00:32:55.618Z,1.40
2022-08-04T00:33:25.585Z,1.30
2022-08-04T00:33:56.677Z,1.40
2022-08-04T00:34:27.167Z,1.20
2022-08-04T00:34:58.079Z,1.40
2022-08-04T00:35:28.985Z,1.30
2022-08-04T00:35:59.896Z,1.20
2022-08-04T00:36:30.778Z,1.30
2022-08-04T00:37:01.873Z,1.30
2022-08-04T00:37:32.347Z,1.30
2022-08-04T00:38:03.317Z,1.40
2022-08-04T00:39:55.327Z,1.30
2022-08-04T00:40:26.430Z,1.30
2022-08-04T00:40:57.019Z,1.30
2022-08-04T00:41:27.923Z,1.30
2022-08-04T00:41:58.823Z,1.40
2022-08-04T00:42:29.858Z,1.30
2022-08-04T00:43:00.343Z,1.30
2022-08-04T00:43:31.517Z,1.30
2022-08-04T00:44:01.994Z,1.30
2022-08-04T00:44:32.945Z,1.30
2022-08-04T00:45:03.904Z,1.20
2022-08-04T00:46:00.646Z,1.30
2022-08-04T00:46:15.826Z,1.40
2022-08-04T00:46:37.678Z,1.30
2022-08-04T00:47:07.148Z,1.50
2022-08-04T00:47:38.108Z,1.30
2022-08-04T00:48:09.096Z,1.40
2022-08-04T00:48:39.993Z,1.40
2022-08-04T00:49:11.157Z,1.30
2022-08-04T00:49:41.627Z,1.30
2022-08-04T00:50:12.599Z,1.30
2022-08-04T00:50:43.508Z,1.30
2022-08-04T00:51:14.489Z,1.30
2022-08-04T00:51:45.398Z,1.40
2022-08-04T00:52:32.204Z,1.20
2022-08-04T00:52:47.927Z,1.20
2022-08-04T00:53:17.832Z,1.30
2022-08-04T00:53:50.189Z,1.20
2022-08-04T00:54:19.728Z,1.40
2022-08-04T00:54:50.828Z,1.40
2022-08-04T00:55:21.302Z,1.40
2022-08-04T00:55:52.253Z,1.30
2022-08-04T00:56:23.144Z,1.30
2022-08-04T00:56:54.057Z,1.40
2022-08-04T00:57:33.579Z,1.40
2022-08-04T00:57:55.884Z,1.30
2022-08-04T00:58:26.860Z,1.40
2022-08-04T00:58:57.823Z,1.30
2022-08-04T00:59:28.695Z,1.30
2022-08-04T00:59:59.601Z,1.40
2022-08-04T01:00:30.675Z,1.40
2022-08-04T01:01:01.224Z,1.30
2022-08-04T01:01:31.872Z,1.40
2022-08-04T01:02:02.812Z,1.50
2022-08-04T01:02:33.718Z,1.30
2022-08-04T01:03:04.677Z,1.40
2022-08-04T01:03:35.764Z,1.30
2022-08-04T01:04:06.237Z,1.40
2022-08-04T01:04:37.141Z,1.30
2022-08-04T01:05:08.106Z,1.30
2022-08-04T01:05:39.012Z,1.30
2022-08-04T01:06:09.931Z,1.40
2022-08-04T01:06:41.117Z,1.40
2022-08-04T01:07:11.585Z,1.30
2022-08-04T01:07:42.467Z,1.30
2022-08-04T01:08:13.440Z,1.60
2022-08-04T01:08:44.404Z,1.50
2022-08-04T01:09:21.479Z,1.40
2022-08-04T01:09:47.273Z,1.50
2022-08-04T01:10:17.698Z,1.30
2022-08-04T01:10:47.239Z,1.40
2022-08-04T01:11:18.149Z,1.30
2022-08-04T01:11:56.665Z,1.40
2022-08-04T01:12:20.992Z,1.30
2022-08-04T01:12:50.949Z,1.40
2022-08-04T01:13:21.918Z,1.30
2022-08-04T01:13:52.898Z,1.50
2022-08-04T01:14:25.597Z,1.40
2022-08-04T01:14:54.905Z,1.30
2022-08-04T01:15:25.437Z,1.30
2022-08-04T01:16:00.641Z,1.30
2022-08-04T01:16:27.870Z,1.40
2022-08-04T01:16:57.331Z,1.40
2022-08-04T01:17:28.434Z,1.30
2022-08-04T01:17:58.913Z,1.40
2022-08-04T01:18:29.876Z,1.30
2022-08-04T01:19:00.858Z,1.40
2022-08-04T01:19:31.762Z,1.30
2022-08-04T01:20:02.737Z,1.40
2022-08-04T01:20:33.829Z,1.20
2022-08-04T01:21:04.306Z,1.30
2022-08-04T01:21:35.282Z,1.40
2022-08-04T01:22:06.255Z,1.40
2022-08-04T01:22:37.160Z,1.30
2022-08-04T01:23:08.146Z,1.20
2022-08-04T01:23:39.253Z,1.30
2022-08-04T01:24:09.742Z,1.20
2022-08-04T01:24:40.649Z,1.30
2022-08-04T01:25:11.518Z,1.30
2022-08-04T01:25:42.427Z,1.40
2022-08-04T01:26:43.994Z,1.30
2022-08-04T01:26:53.514Z,1.50
2022-08-04T01:27:15.971Z,1.30
2022-08-04T01:27:45.443Z,1.30
2022-08-04T01:28:16.344Z,1.50
2022-08-04T01:28:47.281Z,1.40
2022-08-04T01:29:17.942Z,1.40
2022-08-04T01:29:48.791Z,1.30
2022-08-04T01:30:19.334Z,1.30
2022-08-04T01:30:50.308Z,1.30
2022-08-04T01:31:21.274Z,1.40
2022-08-04T01:31:52.237Z,1.30
2022-08-04T01:32:25.491Z,1.50
2022-08-04T01:32:53.959Z,1.30
2022-08-04T01:33:24.871Z,1.30
2022-08-04T01:33:59.127Z,1.50
2022-08-04T01:34:26.742Z,1.30
2022-08-04T01:34:57.827Z,1.40
2022-08-04T01:35:46.549Z,1.30
2022-08-04T01:35:59.326Z,1.30
2022-08-04T01:36:29.882Z,1.50
2022-08-04T01:37:00.373Z,1.40
2022-08-04T01:37:31.444Z,1.30
2022-08-04T01:38:01.916Z,1.30
2022-08-04T01:38:33.883Z,1.30
2022-08-04T01:39:03.435Z,1.30
2022-08-04T01:39:34.311Z,1.50
2022-08-04T01:40:04.966Z,1.40
2022-08-04T01:40:35.435Z,1.40
2022-08-04T01:41:06.313Z,1.40
2022-08-04T01:41:37.220Z,1.30
2022-08-04T01:42:09.646Z,1.40
2022-08-04T01:42:39.037Z,1.40
2022-08-04T01:43:10.136Z,1.30
2022-08-04T01:43:40.563Z,1.40
2022-08-04T01:44:11.480Z,1.40
2022-08-04T01:44:42.384Z,1.40
2022-08-04T01:45:13.309Z,1.30
2022-08-04T01:45:44.270Z,1.30
2022-08-04T01:46:15.369Z,1.40
2022-08-04T01:46:45.817Z,1.30
2022-08-04T01:47:16.729Z,1.40
2022-08-04T01:47:47.654Z,1.40
2022-08-04T01:48:18.559Z,1.40
2022-08-04T01:48:49.521Z,1.40
2022-08-04T01:49:20.619Z,1.50
2022-08-04T01:49:51.091Z,1.30
2022-08-04T01:50:22.017Z,1.40
2022-08-04T01:50:53.228Z,1.50
2022-08-04T01:51:23.743Z,1.30
2022-08-04T01:51:54.627Z,1.30
2022-08-04T01:52:25.771Z,1.30
2022-08-04T01:52:56.252Z,1.30
2022-08-04T01:53:27.153Z,1.30
2022-08-04T01:53:58.115Z,1.30
2022-08-04T01:54:29.093Z,1.40
2022-08-04T01:54:59.993Z,1.30
2022-08-04T01:55:55.218Z,1.40
2022-08-04T01:56:02.530Z,1.30
2022-08-04T01:56:31.930Z,1.30
2022-08-04T01:57:37.002Z,1.30
2022-08-04T01:57:37.648Z,1.30
2022-08-04T01:58:04.356Z,1.40
2022-08-04T01:58:35.343Z,1.40
2022-08-04T01:59:06.302Z,1.30
2022-08-04T01:59:37.208Z,1.30
2022-08-04T02:00:08.141Z,1.40
2022-08-04T02:00:39.241Z,1.40
2022-08-04T02:01:09.806Z,1.30
2022-08-04T02:01:40.574Z,1.30
2022-08-04T02:02:11.223Z,1.20
2022-08-04T02:02:41.968Z,1.30
2022-08-04T02:03:12.486Z,1.30
2022-08-04T02:04:20.548Z,1.20
2022-08-04T02:04:21.883Z,1.30
2022-08-04T02:04:44.424Z,1.40
2022-08-04T02:05:15.324Z,1.40
2022-08-04T02:06:03.767Z,1.40
2022-08-04T02:06:18.282Z,1.50
2022-08-04T02:06:47.753Z,1.40
2022-08-04T02:07:18.725Z,1.40
2022-08-04T02:07:49.694Z,1.40
2022-08-04T02:08:20.603Z,1.30
2022-08-04T02:08:51.688Z,1.30
2022-08-04T02:09:22.167Z,1.40
2022-08-04T02:09:54.399Z,1.30
2022-08-04T02:10:24.054Z,1.30
2022-08-04T02:10:55.010Z,1.30
2022-08-04T02:11:25.900Z,1.30
2022-08-04T02:11:56.981Z,1.30
2022-08-04T02:12:27.469Z,1.40
2022-08-04T02:12:58.394Z,1.30
2022-08-04T02:13:29.296Z,1.30
2022-08-04T02:14:00.202Z,1.40
2022-08-04T02:14:31.129Z,1.40
2022-08-04T02:15:02.240Z,1.40
2022-08-04T02:15:32.720Z,1.30
2022-08-04T02:16:03.630Z,1.40
2022-08-04T02:16:34.607Z,1.40
2022-08-04T02:17:05.587Z,1.30
2022-08-04T02:17:36.598Z,1.30
2022-08-04T02:18:07.201Z,1.40
2022-08-04T02:18:37.680Z,1.20
2022-08-04T02:19:09.065Z,1.30
2022-08-04T02:19:39.474Z,1.30
2022-08-04T02:20:10.378Z,1.20
2022-08-04T02:20:41.470Z,1.40
2022-08-04T02:21:11.945Z,1.40
2022-08-04T02:21:43.116Z,1.30
2022-08-04T02:22:13.667Z,1.30
2022-08-04T02:22:44.549Z,1.30
2022-08-04T02:23:15.441Z,1.40
2022-08-04T02:23:46.542Z,1.40
2022-08-04T02:24:17.030Z,1.40
2022-08-04T02:24:47.987Z,1.40
2022-08-04T02:25:18.882Z,1.30
2022-08-04T02:25:49.787Z,1.50
2022-08-04T02:26:22.746Z,1.50
2022-08-04T02:26:51.864Z,1.40
2022-08-04T02:27:22.672Z,1.40
2022-08-04T02:27:59.838Z,1.40
2022-08-04T02:28:24.788Z,1.40
2022-08-04T02:28:54.173Z,1.40
2022-08-04T02:29:27.293Z,1.40
2022-08-04T02:29:56.761Z,1.50
2022-08-04T02:30:26.151Z,1.40
2022-08-04T02:30:57.140Z,1.40
2022-08-04T02:31:28.858Z,1.30
2022-08-04T02:31:58.765Z,1.30
2022-08-04T02:32:29.232Z,1.30
2022-08-04T02:33:00.137Z,1.40
2022-08-04T02:33:31.092Z,1.40
2022-08-04T02:34:01.976Z,1.50
2022-08-04T02:34:32.951Z,1.40
2022-08-04T02:35:04.110Z,1.40
2022-08-04T02:35:34.582Z,1.40
2022-08-04T02:36:05.493Z,1.30
2022-08-04T02:36:36.455Z,1.50
2022-08-04T02:37:07.445Z,1.40
2022-08-04T02:37:38.376Z,1.30
2022-08-04T02:38:09.472Z,1.30
2022-08-04T02:38:39.947Z,1.40
2022-08-04T02:39:10.998Z,1.40
2022-08-04T02:39:48.147Z,1.30
2022-08-04T02:40:13.706Z,1.30
2022-08-04T02:40:43.361Z,1.40
2022-08-04T02:41:13.841Z,1.40
2022-08-04T02:41:44.723Z,1.30
2022-08-04T02:42:15.707Z,1.40
2022-08-04T02:42:46.603Z,1.30
2022-08-04T02:43:17.518Z,1.40
2022-08-04T02:43:50.990Z,1.40
2022-08-04T02:44:19.270Z,1.40
2022-08-04T02:44:50.181Z,1.30
2022-08-04T02:45:21.132Z,1.40
2022-08-04T02:45:52.038Z,1.30
2022-08-04T02:46:23.015Z,1.50
2022-08-04T02:46:54.180Z,1.40
2022-08-04T02:47:24.807Z,1.40
2022-08-04T02:48:29.411Z,1.50
2022-08-04T02:48:30.261Z,1.40
2022-08-04T02:48:57.351Z,1.50
2022-08-04T02:49:27.840Z,1.40
2022-08-04T02:49:59.795Z,1.40
2022-08-04T02:50:29.494Z,1.50
2022-08-04T02:51:00.071Z,1.50
2022-08-04T02:51:30.943Z,1.30
2022-08-04T02:52:01.852Z,1.20
2022-08-04T02:52:32.921Z,1.30
2022-08-04T02:53:03.392Z,1.40
2022-08-04T02:53:34.305Z,1.40
2022-08-04T02:54:05.201Z,1.50
2022-08-04T02:54:36.109Z,1.40
2022-08-04T02:55:07.262Z,1.40
2022-08-04T02:55:37.752Z,1.40
2022-08-04T02:56:08.671Z,1.40
2022-08-04T02:56:39.571Z,1.30
2022-08-04T02:57:10.454Z,1.50
2022-08-04T02:57:41.352Z,1.60
2022-08-04T02:58:12.505Z,1.50
2022-08-04T02:58:42.985Z,1.30
2022-08-04T02:59:13.882Z,1.40
2022-08-04T02:59:44.803Z,1.40
2022-08-04T03:00:15.716Z,1.40
2022-08-04T03:00:46.783Z,1.60
2022-08-04T03:01:17.692Z,1.30
2022-08-04T03:01:57.030Z,1.40
2022-08-04T03:02:19.901Z,1.50
2022-08-04T03:02:49.340Z,1.40
2022-08-04T03:03:20.321Z,1.40
2022-08-04T03:03:51.430Z,1.40
2022-08-04T03:04:24.708Z,1.40
2022-08-04T03:04:52.504Z,1.40
2022-08-04T03:05:23.415Z,1.40
2022-08-04T03:06:01.111Z,1.50
2022-08-04T03:06:25.421Z,1.50
2022-08-04T03:06:55.898Z,1.30
2022-08-04T03:07:26.795Z,1.40
2022-08-04T03:07:57.695Z,1.60
2022-08-04T03:08:28.593Z,1.30
2022-08-04T03:08:59.493Z,1.40
2022-08-04T03:09:35.249Z,1.40
2022-08-04T03:10:03.038Z,1.50
2022-08-04T03:10:31.505Z,1.40
2022-08-04T03:11:02.463Z,1.40
2022-08-04T03:11:33.053Z,1.60
2022-08-04T03:12:04.228Z,1.30
2022-08-04T03:12:34.697Z,1.40
2022-08-04T03:13:05.674Z,1.30
2022-08-04T03:13:36.581Z,1.50
2022-08-04T03:14:09.663Z,1.40
2022-08-04T03:14:38.428Z,1.40
2022-08-04T03:15:09.528Z,1.40
2022-08-04T03:15:40.006Z,1.40
2022-08-04T03:16:11.040Z,1.50
2022-08-04T03:16:41.448Z,1.40
2022-08-04T03:17:12.371Z,1.50
2022-08-04T03:17:52.572Z,1.40
2022-08-04T03:18:15.316Z,1.50
2022-08-04T03:18:44.727Z,1.40
2022-08-04T03:19:15.634Z,1.40
2022-08-04T03:19:46.602Z,1.50
2022-08-04T03:20:17.558Z,1.30
2022-08-04T03:20:48.650Z,1.60
2022-08-04T03:21:19.138Z,1.50
2022-08-04T03:21:50.037Z,1.40
2022-08-04T03:22:20.949Z,1.40
2022-08-04T03:23:11.996Z,1.50
2022-08-04T03:23:23.009Z,1.50
2022-08-04T03:23:53.499Z,1.30
2022-08-04T03:24:24.383Z,1.50
2022-08-04T03:24:55.297Z,1.50
2022-08-04T03:25:26.199Z,1.30
2022-08-04T03:25:57.794Z,1.50
2022-08-04T03:26:27.952Z,1.50
2022-08-04T03:26:58.358Z,1.50
2022-08-04T03:27:29.259Z,1.30
2022-08-04T03:28:00.162Z,1.50
2022-08-04T03:28:31.146Z,1.50
2022-08-04T03:29:02.054Z,1.50
2022-08-04T03:29:36.992Z,1.50
2022-08-04T03:30:03.972Z,1.50
2022-08-04T03:30:34.872Z,1.60
2022-08-04T03:31:05.844Z,1.40
2022-08-04T03:31:36.806Z,1.60
2022-08-04T03:32:07.746Z,1.50
2022-08-04T03:32:38.826Z,1.50
2022-08-04T03:33:09.298Z,1.40
2022-08-04T03:33:40.272Z,1.40
2022-08-04T03:34:11.174Z,1.40
2022-08-04T03:34:42.159Z,1.40
2022-08-04T03:35:13.651Z,1.60
2022-08-04T03:35:43.982Z,1.60
2022-08-04T03:36:14.882Z,1.40
2022-08-04T03:36:45.842Z,1.50
2022-08-04T03:37:16.822Z,1.40
2022-08-04T03:37:47.731Z,1.50
2022-08-04T03:38:18.881Z,1.40
2022-08-04T03:38:56.964Z,1.40
2022-08-04T03:39:21.374Z,1.40
2022-08-04T03:39:50.985Z,1.50
2022-08-04T03:40:21.900Z,1.50
2022-08-04T03:40:53.045Z,1.40
2022-08-04T03:41:54.838Z,1.40
2022-08-04T03:42:03.909Z,1.40
2022-08-04T03:42:25.404Z,1.40
2022-08-04T03:42:56.306Z,1.50
2022-08-04T03:43:58.164Z,1.60
2022-08-04T03:44:00.018Z,1.50
2022-08-04T03:44:28.698Z,1.40
2022-08-04T03:44:59.574Z,1.50
2022-08-04T03:45:30.568Z,1.50
2022-08-04T03:46:01.543Z,1.40
2022-08-04T03:46:32.702Z,1.50
2022-08-04T03:47:03.197Z,1.40
2022-08-04T03:47:34.109Z,1.50
2022-08-04T03:48:06.081Z,1.60
2022-08-04T03:48:35.537Z,1.50
2022-08-04T03:49:09.924Z,1.50
2022-08-04T03:49:37.401Z,1.60
2022-08-04T03:50:08.307Z,1.60
2022-08-04T03:50:41.405Z,1.50
2022-08-04T03:51:09.794Z,1.60
2022-08-04T03:51:40.859Z,1.40
2022-08-04T03:52:11.277Z,1.40
2022-08-04T03:52:42.173Z,1.60
2022-08-04T03:53:14.101Z,1.40
2022-08-04T03:53:44.060Z,1.40
2022-08-04T03:54:15.217Z,1.40
2022-08-04T03:54:45.683Z,1.40
2022-08-04T03:55:16.655Z,1.40
2022-08-04T03:55:47.611Z,1.60
2022-08-04T03:56:18.603Z,1.60
2022-08-04T03:56:49.488Z,1.50
2022-08-04T03:57:20.873Z,1.60
2022-08-04T03:57:50.862Z,1.50
2022-08-04T03:58:21.713Z,1.30
2022-08-04T03:58:53.618Z,1.50
2022-08-04T03:59:23.544Z,1.40
2022-08-04T03:59:54.581Z,1.50
2022-08-04T04:00:25.019Z,1.60
2022-08-04T04:00:55.882Z,1.50
2022-08-04T04:01:26.885Z,1.50
2022-08-04T04:02:01.952Z,1.60
2022-08-04T04:02:28.960Z,1.60
2022-08-04T04:02:59.480Z,1.40
2022-08-04T04:03:30.454Z,1.60
2022-08-04T04:04:01.346Z,1.70
2022-08-04T04:04:32.311Z,1.50
2022-08-04T04:05:02.975Z,1.60
2022-08-04T04:05:40.982Z,1.60
2022-08-04T04:06:05.407Z,1.50
2022-08-04T04:06:35.324Z,1.40
2022-08-04T04:07:06.148Z,1.50
2022-08-04T04:07:37.137Z,1.50
2022-08-04T04:08:13.774Z,1.50
2022-08-04T04:08:39.529Z,1.40
2022-08-04T04:09:13.551Z,1.50
2022-08-04T04:09:58.054Z,1.40
2022-08-04T04:10:10.757Z,1.50
2022-08-04T04:10:41.704Z,1.50
2022-08-04T04:11:12.190Z,1.40
2022-08-04T04:11:57.782Z,1.60
2022-08-04T04:12:14.014Z,1.60
2022-08-04T04:12:44.927Z,1.50
2022-08-04T04:13:15.971Z,1.40
2022-08-04T04:13:46.400Z,1.50
2022-08-04T04:14:17.324Z,1.60
2022-08-04T04:14:48.293Z,1.50
2022-08-04T04:15:19.197Z,1.40
2022-08-04T04:15:50.415Z,1.60
2022-08-04T04:16:21.227Z,1.50
2022-08-04T04:16:51.709Z,1.60
2022-08-04T04:17:22.864Z,1.60
2022-08-04T04:17:53.617Z,1.40
2022-08-04T04:18:24.600Z,1.60
2022-08-04T04:18:55.530Z,1.60
2022-08-04T04:19:26.577Z,1.50
2022-08-04T04:19:58.551Z,1.60
2022-08-04T04:20:27.894Z,1.70
2022-08-04T04:20:58.733Z,1.70
2022-08-04T04:21:29.672Z,1.60
2022-08-04T04:22:00.573Z,1.60
2022-08-04T04:22:36.575Z,1.50
2022-08-04T04:23:03.123Z,1.50
2022-08-04T04:23:32.971Z,1.40
2022-08-04T04:24:03.951Z,1.60
2022-08-04T04:24:34.795Z,1.60
2022-08-04T04:25:05.824Z,1.60
2022-08-04T04:25:36.242Z,1.60
2022-08-04T04:26:07.093Z,1.50
2022-08-04T04:26:38.011Z,1.70
2022-08-04T04:27:08.908Z,1.50
2022-08-04T04:27:39.807Z,1.50
2022-08-04T04:28:45.898Z,1.50
2022-08-04T04:28:46.426Z,1.50
2022-08-04T04:29:11.927Z,1.50
2022-08-04T04:29:42.842Z,1.50
2022-08-04T04:30:13.814Z,1.60
2022-08-04T04:30:44.724Z,1.50
2022-08-04T04:31:15.788Z,1.60
2022-08-04T04:31:46.291Z,1.50
2022-08-04T04:32:17.211Z,1.50
2022-08-04T04:32:48.081Z,1.60
2022-08-04T04:33:19.017Z,1.60
2022-08-04T04:33:49.847Z,1.80
2022-08-04T04:34:20.978Z,1.60
2022-08-04T04:34:51.419Z,1.60
2022-08-04T04:35:22.332Z,1.50
2022-08-04T04:35:53.240Z,1.60
2022-08-04T04:36:24.155Z,1.50
2022-08-04T04:36:55.087Z,1.60
2022-08-04T04:37:26.182Z,1.60
2022-08-04T04:37:56.611Z,1.60
2022-08-04T04:38:27.463Z,1.60
2022-08-04T04:38:58.331Z,1.60
2022-08-04T04:39:29.268Z,1.70
2022-08-04T04:40:03.260Z,1.60
2022-08-04T04:40:32.560Z,1.50
2022-08-04T04:41:01.977Z,1.50
2022-08-04T04:41:32.869Z,1.60
2022-08-04T04:42:03.716Z,1.50
2022-08-04T04:42:34.577Z,1.50
2022-08-04T04:43:05.556Z,1.60
2022-08-04T04:43:51.507Z,1.50
2022-08-04T04:44:08.482Z,1.50
2022-08-04T04:44:38.339Z,1.60
2022-08-04T04:45:09.248Z,1.50
2022-08-04T04:45:40.184Z,1.60
2022-08-04T04:46:11.290Z,1.40
2022-08-04T04:46:41.976Z,1.50
2022-08-04T04:47:12.933Z,1.60
2022-08-04T04:48:09.253Z,1.50
2022-08-04T04:48:14.383Z,1.40
2022-08-04T04:48:45.250Z,1.70
2022-08-04T04:49:16.282Z,1.50
2022-08-04T04:49:46.711Z,1.50
2022-08-04T04:50:17.626Z,1.50
2022-08-04T04:50:48.554Z,1.50
2022-08-04T04:51:19.440Z,1.50
2022-08-04T04:51:50.370Z,1.40
2022-08-04T04:52:21.408Z,1.60
2022-08-04T04:52:51.835Z,1.50
2022-08-04T04:53:22.762Z,1.40
2022-08-04T04:54:00.099Z,1.50
2022-08-04T04:54:25.525Z,1.40
2022-08-04T04:54:55.582Z,1.50
2022-08-04T04:55:26.024Z,1.50
2022-08-04T04:55:56.949Z,1.60
2022-08-04T04:56:27.800Z,1.50
2022-08-04T04:56:58.668Z,1.70
2022-08-04T04:57:54.251Z,1.50
2022-08-04T04:58:01.589Z,1.60
2022-08-04T04:58:31.002Z,1.50
2022-08-04T04:59:01.829Z,1.50
2022-08-04T04:59:32.739Z,1.60
2022-08-04T05:00:03.661Z,1.60
2022-08-04T05:00:34.769Z,1.60
2022-08-04T05:01:05.211Z,1.60
2022-08-04T05:01:36.164Z,1.80
2022-08-04T05:02:07.037Z,1.50
2022-08-04T05:02:37.929Z,1.60
2022-08-04T05:03:09.559Z,1.40
2022-08-04T05:03:39.803Z,1.60
2022-08-04T05:04:10.232Z,1.70
2022-08-04T05:04:41.091Z,1.60
2022-08-04T05:05:12.032Z,1.40
2022-08-04T05:05:42.901Z,1.50
2022-08-04T05:06:13.820Z,1.40
2022-08-04T05:06:44.933Z,1.40
2022-08-04T05:07:16.347Z,1.60
2022-08-04T05:07:46.215Z,1.60
2022-08-04T05:08:42.806Z,1.50
2022-08-04T05:08:51.228Z,1.60
2022-08-04T05:09:19.810Z,1.40
2022-08-04T05:09:49.664Z,1.60
2022-08-04T05:10:20.430Z,1.50
2022-08-04T05:10:51.355Z,1.60
2022-08-04T05:11:22.295Z,1.60
2022-08-04T05:11:54.408Z,1.60
2022-08-04T05:14:30.870Z,1.40
2022-08-04T05:14:32.147Z,1.50
2022-08-04T05:14:36.727Z,1.50
2022-08-04T05:14:37.543Z,1.60
2022-08-04T05:14:37.623Z,1.50
2022-08-04T05:14:59.324Z,1.50
2022-08-04T05:15:29.184Z,1.60
2022-08-04T05:16:00.107Z,1.40
2022-08-04T05:16:30.969Z,1.50
2022-08-04T05:17:01.888Z,1.50
2022-08-04T05:17:32.997Z,1.40
2022-08-04T05:18:03.434Z,1.60
2022-08-04T05:18:34.377Z,1.50
2022-08-04T05:19:05.297Z,1.70
2022-08-04T05:19:36.221Z,1.60
2022-08-04T05:20:07.155Z,1.60
2022-08-04T05:20:38.189Z,1.60
2022-08-04T05:21:08.628Z,1.50
2022-08-04T05:21:39.613Z,1.50
2022-08-04T05:22:14.138Z,1.50
2022-08-04T05:22:40.572Z,1.70
2022-08-04T05:23:11.503Z,1.70
2022-08-04T05:23:42.623Z,1.50
2022-08-04T05:24:13.039Z,1.60
2022-08-04T05:24:43.972Z,1.50
2022-08-04T05:25:14.836Z,1.60
2022-08-04T05:25:50.082Z,1.50
2022-08-04T05:26:16.848Z,1.50
2022-08-04T05:26:47.283Z,1.60
2022-08-04T05:27:18.194Z,1.50
2022-08-04T05:27:49.127Z,1.60
2022-08-04T05:28:20.068Z,1.60
2022-08-04T05:28:50.994Z,1.70
2022-08-04T05:29:22.115Z,1.60
2022-08-04T05:29:52.493Z,1.80
2022-08-04T05:30:23.410Z,1.60
2022-08-04T05:30:54.339Z,1.50
2022-08-04T05:31:25.268Z,1.70
2022-08-04T05:31:56.301Z,1.60
2022-08-04T05:32:26.733Z,1.60
2022-08-04T05:32:59.206Z,1.50
2022-08-04T05:33:29.324Z,1.50
2022-08-04T05:33:58.879Z,1.60
2022-08-04T05:34:29.789Z,1.50
2022-08-04T05:35:00.911Z,1.50
2022-08-04T05:35:47.945Z,1.50
2022-08-04T05:36:20.823Z,1.40
2022-08-04T05:36:40.994Z,1.50
2022-08-04T05:37:04.876Z,1.50
2022-08-04T05:37:34.244Z,1.50
2022-08-04T05:38:05.168Z,1.60
2022-08-04T05:38:36.084Z,1.50
2022-08-04T05:39:07.136Z,1.50
2022-08-04T05:39:37.897Z,1.50
2022-08-04T05:40:08.543Z,1.60
2022-08-04T05:40:39.001Z,1.40
2022-08-04T05:41:09.947Z,1.50
2022-08-04T05:41:45.460Z,1.50
2022-08-04T05:42:12.799Z,1.40
2022-08-04T05:42:42.970Z,1.50
2022-08-04T05:43:13.408Z,1.50
2022-08-04T05:43:44.184Z,1.50
2022-08-04T05:44:15.141Z,1.50
2022-08-04T05:44:50.754Z,1.60
2022-08-04T05:45:18.258Z,1.60
2022-08-04T05:45:47.637Z,1.60
2022-08-04T05:46:18.523Z,1.60
2022-08-04T05:46:54.195Z,1.60
2022-08-04T05:47:20.636Z,1.50
2022-08-04T05:47:51.346Z,1.50
2022-08-04T05:48:21.782Z,1.60
2022-08-04T05:48:52.651Z,1.60
2022-08-04T05:49:23.523Z,1.50
2022-08-04T05:49:55.689Z,1.60
2022-08-04T05:50:25.506Z,1.60
2022-08-04T05:51:00.417Z,1.70
2022-08-04T05:51:27.828Z,1.60
2022-08-04T05:51:57.705Z,1.60
2022-08-04T05:52:28.661Z,1.70
2022-08-04T05:52:59.993Z,1.50
2022-08-04T05:53:30.470Z,1.60
2022-08-04T05:54:01.408Z,1.80
2022-08-04T05:54:32.385Z,1.50
2022-08-04T05:55:03.289Z,1.40
2022-08-04T05:55:56.696Z,1.70
2022-08-04T05:56:04.996Z,1.50
2022-08-04T05:56:35.899Z,1.60
2022-08-04T05:57:06.824Z,1.50
2022-08-04T05:57:37.801Z,1.50
2022-08-04T05:58:08.738Z,1.40
2022-08-04T05:58:39.777Z,1.50
2022-08-04T05:59:10.202Z,1.40
2022-08-04T05:59:41.155Z,1.70
2022-08-04T06:00:39.781Z,1.50
2022-08-04T06:00:52.104Z,1.50
2022-08-04T06:01:13.951Z,1.50
2022-08-04T06:01:56.054Z,1.50
2022-08-04T06:02:15.305Z,1.70
2022-08-04T06:02:46.024Z,1.60
2022-08-04T06:03:16.887Z,1.60
2022-08-04T06:03:47.913Z,1.50
2022-08-04T06:04:18.309Z,1.50
2022-08-04T06:04:49.247Z,1.50
2022-08-04T06:05:20.166Z,1.60
2022-08-04T06:05:51.122Z,1.50
2022-08-04T06:06:22.029Z,1.60
2022-08-04T06:06:53.156Z,1.60
2022-08-04T06:07:23.686Z,1.70
2022-08-04T06:08:11.905Z,1.50
2022-08-04T06:08:25.056Z,1.60
2022-08-04T06:08:55.985Z,1.50
2022-08-04T06:09:27.110Z,1.60
2022-08-04T06:09:57.515Z,1.60
2022-08-04T06:10:29.903Z,1.30
2022-08-04T06:10:59.233Z,1.50
2022-08-04T06:11:30.172Z,1.60
2022-08-04T06:12:04.152Z,1.50
2022-08-04T06:12:31.838Z,1.60
2022-08-04T06:13:02.271Z,1.50
2022-08-04T06:13:49.730Z,1.70
2022-08-04T06:14:04.143Z,1.70
2022-08-04T06:14:35.100Z,1.70
2022-08-04T06:15:06.186Z,1.50
2022-08-04T06:15:36.608Z,1.50
2022-08-04T06:16:07.489Z,1.60
2022-08-04T06:16:38.432Z,1.50
2022-08-04T06:18:33.621Z,1.60
2022-08-04T06:18:33.783Z,1.50
2022-08-04T06:19:57.588Z,1.50
2022-08-04T06:20:02.709Z,1.60
2022-08-04T06:20:02.962Z,1.80
2022-08-04T06:20:03.258Z,1.60
2022-08-04T06:20:19.715Z,1.50
2022-08-04T06:20:50.194Z,1.60
2022-08-04T06:21:16.655Z,1.50
2022-08-04T06:21:46.540Z,1.60
2022-08-04T06:22:17.466Z,1.40
2022-08-04T06:22:48.406Z,1.50
2022-08-04T06:23:19.461Z,1.70
2022-08-04T06:23:53.238Z,1.60
2022-08-04T06:24:21.774Z,1.50
2022-08-04T06:24:51.709Z,1.50
2022-08-04T06:25:24.148Z,1.40
2022-08-04T06:25:53.758Z,1.50
2022-08-04T06:26:24.127Z,1.60
2022-08-04T06:26:55.062Z,1.60
2022-08-04T06:27:26.003Z,1.50
2022-08-04T06:27:56.861Z,1.60
2022-08-04T06:28:27.762Z,1.50
2022-08-04T06:28:58.791Z,1.60
2022-08-04T06:29:29.213Z,1.60
2022-08-04T06:30:00.172Z,1.60
2022-08-04T06:30:31.075Z,1.50
2022-08-04T06:31:01.987Z,1.50
2022-08-04T06:32:28.588Z,1.60
2022-08-04T06:32:30.274Z,1.70
2022-08-04T06:32:37.539Z,1.60
2022-08-04T06:33:05.405Z,1.80
2022-08-04T06:33:54.843Z,1.60
2022-08-04T06:34:07.039Z,1.70
2022-08-04T06:34:37.503Z,1.70
2022-08-04T06:35:08.468Z,1.70
2022-08-04T06:35:39.421Z,1.70
2022-08-04T06:36:10.542Z,1.70
2022-08-04T06:36:41.238Z,1.60
2022-08-04T06:37:12.310Z,1.70
2022-08-04T06:37:44.474Z,1.70
2022-08-04T06:38:13.497Z,1.50
2022-08-04T06:38:44.450Z,1.80
2022-08-04T06:39:15.446Z,1.70
2022-08-04T06:39:46.395Z,1.60
2022-08-04T06:40:30.939Z,1.60
2022-08-04T06:40:48.544Z,1.70
2022-08-04T06:41:18.484Z,1.60
2022-08-04T06:42:01.920Z,1.60
2022-08-04T06:42:23.004Z,1.60
2022-08-04T06:42:51.437Z,1.70
2022-08-04T06:43:21.904Z,1.80
2022-08-04T06:43:52.901Z,1.70
2022-08-04T06:44:26.313Z,1.70
2022-08-04T06:44:54.335Z,1.90
2022-08-04T06:45:25.283Z,1.70
2022-08-04T06:45:56.404Z,1.80
2022-08-04T06:46:26.910Z,1.70
2022-08-04T06:46:57.366Z,1.60
2022-08-04T06:47:28.291Z,1.70
2022-08-04T06:47:59.162Z,1.50
2022-08-04T06:48:33.335Z,1.80
2022-08-04T06:49:00.962Z,1.70
2022-08-04T06:49:31.436Z,1.70
2022-08-04T06:51:24.862Z,1.90
2022-08-04T06:51:25.420Z,1.80
2022-08-04T06:51:27.653Z,1.60
2022-08-04T06:51:39.932Z,1.80